sensor_id;sensor_type;location;lat;lon;timestamp;P1;durP1;ratioP1;P2;durP2;ratioP2
26742;SDS011;14341;51.256;22.478;2022-10-19T00:01:36;35.20;;;21.88;;
26742;SDS011;14341;51.256;22.478;2022-10-19T00:04:40;33.05;;;21.98;;
26742;SDS011;14341;51.256;22.478;2022-10-19T00:07:43;33.47;;;19.90;;
26742;SDS011;14341;51.256;22.478;2022-10-19T00:10:48;28.05;;;18.60;;
26742;SDS011;14341;51.256;22.478;2022-10-19T00:13:52;24.90;;;17.58;;
26742;SDS011;14341;51.256;22.478;2022-10-19T00:16:56;23.85;;;16.63;;
26742;SDS011;14341;51.256;22.478;2022-10-19T00:20:00;24.73;;;16.92;;
26742;SDS011;14341;51.256;22.478;2022-10-19T00:23:03;22.20;;;15.75;;
26742;SDS011;14341;51.256;22.478;2022-10-19T00:26:08;24.40;;;16.98;;
26742;SDS011;14341;51.256;22.478;2022-10-19T00:29:12;25.00;;;16.42;;
26742;SDS011;14341;51.256;22.478;2022-10-19T00:32:16;24.30;;;17.52;;
26742;SDS011;14341;51.256;22.478;2022-10-19T00:35:19;26.60;;;18.58;;
26742;SDS011;14341;51.256;22.478;2022-10-19T00:38:23;26.73;;;17.63;;
26742;SDS011;14341;51.256;22.478;2022-10-19T00:41:28;25.77;;;17.88;;
26742;SDS011;14341;51.256;22.478;2022-10-19T00:48:00;28.27;;;18.23;;
26742;SDS011;14341;51.256;22.478;2022-10-19T00:51:03;25.45;;;18.88;;
26742;SDS011;14341;51.256;22.478;2022-10-19T00:54:06;23.58;;;17.02;;
26742;SDS011;14341;51.256;22.478;2022-10-19T00:57:12;25.25;;;18.13;;
26742;SDS011;14341;51.256;22.478;2022-10-19T01:03:52;22.30;;;16.42;;
26742;SDS011;14341;51.256;22.478;2022-10-19T01:06:55;21.65;;;15.93;;
26742;SDS011;14341;51.256;22.478;2022-10-19T01:10:00;23.20;;;16.10;;
26742;SDS011;14341;51.256;22.478;2022-10-19T01:13:09;20.98;;;15.32;;
26742;SDS011;14341;51.256;22.478;2022-10-19T01:16:27;24.58;;;15.55;;
26742;SDS011;14341;51.256;22.478;2022-10-19T01:19:43;22.70;;;16.25;;
26742;SDS011;14341;51.256;22.478;2022-10-19T01:23:13;22.35;;;16.05;;
26742;SDS011;14341;51.256;22.478;2022-10-19T01:26:53;24.92;;;15.10;;
26742;SDS011;14341;51.256;22.478;2022-10-19T01:30:20;22.33;;;15.32;;
26742;SDS011;14341;51.256;22.478;2022-10-19T01:33:36;23.13;;;15.73;;
26742;SDS011;14341;51.256;22.478;2022-10-19T01:36:49;23.45;;;16.33;;
26742;SDS011;14341;51.256;22.478;2022-10-19T01:40:00;21.02;;;15.27;;
26742;SDS011;14341;51.256;22.478;2022-10-19T01:43:10;23.15;;;15.75;;
26742;SDS011;14341;51.256;22.478;2022-10-19T01:46:24;24.60;;;15.70;;
26742;SDS011;14341;51.256;22.478;2022-10-19T01:49:32;22.85;;;15.60;;
26742;SDS011;14341;51.256;22.478;2022-10-19T01:52:40;22.10;;;15.20;;
26742;SDS011;14341;51.256;22.478;2022-10-19T01:55:46;23.45;;;16.92;;
26742;SDS011;14341;51.256;22.478;2022-10-19T01:58:53;23.95;;;15.73;;
26742;SDS011;14341;51.256;22.478;2022-10-19T02:02:00;24.52;;;15.70;;
26742;SDS011;14341;51.256;22.478;2022-10-19T02:05:06;22.83;;;15.48;;
26742;SDS011;14341;51.256;22.478;2022-10-19T02:08:11;22.05;;;15.30;;
26742;SDS011;14341;51.256;22.478;2022-10-19T02:11:16;20.17;;;14.88;;
26742;SDS011;14341;51.256;22.478;2022-10-19T02:14:21;19.75;;;14.32;;
26742;SDS011;14341;51.256;22.478;2022-10-19T02:17:29;22.80;;;15.02;;
26742;SDS011;14341;51.256;22.478;2022-10-19T02:20:37;21.25;;;15.35;;
26742;SDS011;14341;51.256;22.478;2022-10-19T02:23:40;25.80;;;15.10;;
26742;SDS011;14341;51.256;22.478;2022-10-19T02:26:44;22.60;;;14.65;;
26742;SDS011;14341;51.256;22.478;2022-10-19T02:29:47;24.60;;;14.25;;
26742;SDS011;14341;51.256;22.478;2022-10-19T02:32:52;22.10;;;14.00;;
26742;SDS011;14341;51.256;22.478;2022-10-19T02:35:56;24.30;;;14.50;;
26742;SDS011;14341;51.256;22.478;2022-10-19T02:39:01;24.20;;;14.77;;
26742;SDS011;14341;51.256;22.478;2022-10-19T02:42:06;21.63;;;14.77;;
26742;SDS011;14341;51.256;22.478;2022-10-19T02:45:13;21.20;;;14.27;;
26742;SDS011;14341;51.256;22.478;2022-10-19T02:48:24;21.75;;;14.45;;
26742;SDS011;14341;51.256;22.478;2022-10-19T02:51:32;22.98;;;15.70;;
26742;SDS011;14341;51.256;22.478;2022-10-19T02:54:36;20.83;;;14.50;;
26742;SDS011;14341;51.256;22.478;2022-10-19T02:57:40;27.85;;;15.25;;
26742;SDS011;14341;51.256;22.478;2022-10-19T03:00:44;23.27;;;15.48;;
26742;SDS011;14341;51.256;22.478;2022-10-19T03:03:49;21.80;;;15.55;;
26742;SDS011;14341;51.256;22.478;2022-10-19T03:06:52;23.42;;;16.27;;
26742;SDS011;14341;51.256;22.478;2022-10-19T03:09:55;31.40;;;19.85;;
26742;SDS011;14341;51.256;22.478;2022-10-19T03:12:59;29.85;;;19.20;;
26742;SDS011;14341;51.256;22.478;2022-10-19T03:16:06;27.70;;;16.55;;
26742;SDS011;14341;51.256;22.478;2022-10-19T03:19:11;21.73;;;15.48;;
26742;SDS011;14341;51.256;22.478;2022-10-19T03:22:15;24.35;;;15.70;;
26742;SDS011;14341;51.256;22.478;2022-10-19T03:25:18;23.95;;;15.65;;
26742;SDS011;14341;51.256;22.478;2022-10-19T03:28:21;28.00;;;18.63;;
26742;SDS011;14341;51.256;22.478;2022-10-19T03:31:25;28.00;;;18.08;;
26742;SDS011;14341;51.256;22.478;2022-10-19T03:34:29;30.48;;;18.35;;
26742;SDS011;14341;51.256;22.478;2022-10-19T03:37:33;28.30;;;18.58;;
26742;SDS011;14341;51.256;22.478;2022-10-19T03:40:37;32.03;;;19.70;;
26742;SDS011;14341;51.256;22.478;2022-10-19T03:43:40;31.25;;;20.10;;
26742;SDS011;14341;51.256;22.478;2022-10-19T03:46:43;29.42;;;18.98;;
26742;SDS011;14341;51.256;22.478;2022-10-19T03:49:48;31.23;;;19.27;;
26742;SDS011;14341;51.256;22.478;2022-10-19T03:52:51;28.05;;;19.45;;
26742;SDS011;14341;51.256;22.478;2022-10-19T03:56:00;31.25;;;19.17;;
26742;SDS011;14341;51.256;22.478;2022-10-19T03:59:05;33.40;;;19.92;;
26742;SDS011;14341;51.256;22.478;2022-10-19T04:02:09;33.13;;;20.25;;
26742;SDS011;14341;51.256;22.478;2022-10-19T04:05:13;32.42;;;21.23;;
26742;SDS011;14341;51.256;22.478;2022-10-19T04:08:17;32.75;;;21.45;;
26742;SDS011;14341;51.256;22.478;2022-10-19T04:11:21;34.15;;;21.58;;
26742;SDS011;14341;51.256;22.478;2022-10-19T04:14:26;31.05;;;21.23;;
26742;SDS011;14341;51.256;22.478;2022-10-19T04:17:39;35.35;;;22.25;;
26742;SDS011;14341;51.256;22.478;2022-10-19T04:20:50;32.05;;;21.63;;
26742;SDS011;14341;51.256;22.478;2022-10-19T04:23:58;37.67;;;23.08;;
26742;SDS011;14341;51.256;22.478;2022-10-19T04:27:03;39.88;;;22.08;;
26742;SDS011;14341;51.256;22.478;2022-10-19T04:30:07;38.63;;;22.98;;
26742;SDS011;14341;51.256;22.478;2022-10-19T04:33:11;45.45;;;22.67;;
26742;SDS011;14341;51.256;22.478;2022-10-19T04:36:16;41.63;;;23.63;;
26742;SDS011;14341;51.256;22.478;2022-10-19T04:39:19;38.58;;;23.15;;
26742;SDS011;14341;51.256;22.478;2022-10-19T04:42:23;41.22;;;24.05;;
26742;SDS011;14341;51.256;22.478;2022-10-19T04:45:26;35.10;;;22.98;;
26742;SDS011;14341;51.256;22.478;2022-10-19T04:48:29;35.80;;;22.52;;
26742;SDS011;14341;51.256;22.478;2022-10-19T04:51:34;41.80;;;24.95;;
26742;SDS011;14341;51.256;22.478;2022-10-19T04:54:37;37.78;;;23.00;;
26742;SDS011;14341;51.256;22.478;2022-10-19T04:57:41;40.40;;;22.73;;
26742;SDS011;14341;51.256;22.478;2022-10-19T05:00:56;37.33;;;20.42;;
26742;SDS011;14341;51.256;22.478;2022-10-19T05:04:03;38.03;;;20.90;;
26742;SDS011;14341;51.256;22.478;2022-10-19T05:07:14;32.58;;;21.30;;
26742;SDS011;14341;51.256;22.478;2022-10-19T05:10:19;30.98;;;20.52;;
26742;SDS011;14341;51.256;22.478;2022-10-19T05:13:29;29.55;;;19.42;;
26742;SDS011;14341;51.256;22.478;2022-10-19T05:16:38;32.58;;;21.10;;
26742;SDS011;14341;51.256;22.478;2022-10-19T05:22:57;32.83;;;19.40;;
26742;SDS011;14341;51.256;22.478;2022-10-19T05:26:08;29.23;;;17.65;;
26742;SDS011;14341;51.256;22.478;2022-10-19T05:29:13;28.90;;;17.60;;
26742;SDS011;14341;51.256;22.478;2022-10-19T05:32:17;28.20;;;17.55;;
26742;SDS011;14341;51.256;22.478;2022-10-19T05:35:25;34.50;;;17.38;;
26742;SDS011;14341;51.256;22.478;2022-10-19T05:38:30;28.48;;;17.00;;
26742;SDS011;14341;51.256;22.478;2022-10-19T05:41:34;24.35;;;16.25;;
26742;SDS011;14341;51.256;22.478;2022-10-19T05:44:37;35.22;;;16.83;;
26742;SDS011;14341;51.256;22.478;2022-10-19T05:47:40;30.05;;;16.80;;
26742;SDS011;14341;51.256;22.478;2022-10-19T05:50:51;26.02;;;16.35;;
26742;SDS011;14341;51.256;22.478;2022-10-19T05:56:59;24.52;;;16.52;;
26742;SDS011;14341;51.256;22.478;2022-10-19T06:00:03;26.02;;;15.48;;
26742;SDS011;14341;51.256;22.478;2022-10-19T06:03:12;28.80;;;15.65;;
26742;SDS011;14341;51.256;22.478;2022-10-19T06:06:15;28.38;;;16.10;;
26742;SDS011;14341;51.256;22.478;2022-10-19T06:09:20;25.15;;;16.25;;
26742;SDS011;14341;51.256;22.478;2022-10-19T06:12:24;25.95;;;15.02;;
26742;SDS011;14341;51.256;22.478;2022-10-19T06:15:27;32.40;;;15.07;;
26742;SDS011;14341;51.256;22.478;2022-10-19T06:18:30;24.67;;;15.35;;
26742;SDS011;14341;51.256;22.478;2022-10-19T06:21:33;22.40;;;14.20;;
26742;SDS011;14341;51.256;22.478;2022-10-19T06:24:42;25.80;;;13.27;;
26742;SDS011;14341;51.256;22.478;2022-10-19T06:27:45;23.73;;;14.73;;
26742;SDS011;14341;51.256;22.478;2022-10-19T06:30:49;27.38;;;14.13;;
26742;SDS011;14341;51.256;22.478;2022-10-19T06:33:52;19.20;;;13.23;;
26742;SDS011;14341;51.256;22.478;2022-10-19T06:36:56;28.65;;;13.75;;
26742;SDS011;14341;51.256;22.478;2022-10-19T06:40:01;27.67;;;12.82;;
26742;SDS011;14341;51.256;22.478;2022-10-19T06:43:07;20.77;;;13.73;;
26742;SDS011;14341;51.256;22.478;2022-10-19T06:46:11;23.30;;;13.23;;
26742;SDS011;14341;51.256;22.478;2022-10-19T06:49:20;26.00;;;14.50;;
26742;SDS011;14341;51.256;22.478;2022-10-19T06:52:23;22.77;;;13.10;;
26742;SDS011;14341;51.256;22.478;2022-10-19T06:55:28;27.35;;;12.75;;
26742;SDS011;14341;51.256;22.478;2022-10-19T06:58:33;21.67;;;13.15;;
26742;SDS011;14341;51.256;22.478;2022-10-19T07:01:37;16.20;;;11.20;;
26742;SDS011;14341;51.256;22.478;2022-10-19T07:04:41;20.60;;;12.32;;
26742;SDS011;14341;51.256;22.478;2022-10-19T07:07:44;33.55;;;21.77;;
26742;SDS011;14341;51.256;22.478;2022-10-19T07:10:52;23.50;;;18.45;;
26742;SDS011;14341;51.256;22.478;2022-10-19T07:13:56;18.98;;;10.77;;
26742;SDS011;14341;51.256;22.478;2022-10-19T07:16:59;21.90;;;11.20;;
26742;SDS011;14341;51.256;22.478;2022-10-19T07:20:03;16.75;;;9.73;;
26742;SDS011;14341;51.256;22.478;2022-10-19T07:23:07;17.63;;;10.10;;
26742;SDS011;14341;51.256;22.478;2022-10-19T07:26:12;22.40;;;9.38;;
26742;SDS011;14341;51.256;22.478;2022-10-19T07:29:17;14.85;;;8.93;;
26742;SDS011;14341;51.256;22.478;2022-10-19T07:32:20;14.75;;;8.98;;
26742;SDS011;14341;51.256;22.478;2022-10-19T07:35:23;18.88;;;9.35;;
26742;SDS011;14341;51.256;22.478;2022-10-19T07:38:27;15.93;;;8.93;;
26742;SDS011;14341;51.256;22.478;2022-10-19T07:41:33;18.02;;;8.95;;
26742;SDS011;14341;51.256;22.478;2022-10-19T07:44:37;15.52;;;8.45;;
26742;SDS011;14341;51.256;22.478;2022-10-19T07:47:40;12.68;;;8.45;;
26742;SDS011;14341;51.256;22.478;2022-10-19T07:50:46;16.45;;;9.07;;
26742;SDS011;14341;51.256;22.478;2022-10-19T07:53:49;14.10;;;8.48;;
26742;SDS011;14341;51.256;22.478;2022-10-19T07:56:54;14.05;;;7.32;;
26742;SDS011;14341;51.256;22.478;2022-10-19T07:59:58;15.40;;;7.53;;
26742;SDS011;14341;51.256;22.478;2022-10-19T08:03:01;12.55;;;6.35;;
26742;SDS011;14341;51.256;22.478;2022-10-19T08:06:25;23.63;;;13.30;;
26742;SDS011;14341;51.256;22.478;2022-10-19T08:09:28;10.85;;;5.90;;
26742;SDS011;14341;51.256;22.478;2022-10-19T08:12:53;9.40;;;5.72;;
26742;SDS011;14341;51.256;22.478;2022-10-19T08:15:56;12.65;;;6.22;;
26742;SDS011;14341;51.256;22.478;2022-10-19T08:19:00;10.80;;;5.70;;
26742;SDS011;14341;51.256;22.478;2022-10-19T08:22:04;14.85;;;6.07;;
26742;SDS011;14341;51.256;22.478;2022-10-19T08:25:07;15.07;;;6.97;;
26742;SDS011;14341;51.256;22.478;2022-10-19T08:28:12;12.63;;;5.95;;
26742;SDS011;14341;51.256;22.478;2022-10-19T08:31:17;10.57;;;5.95;;
26742;SDS011;14341;51.256;22.478;2022-10-19T08:34:22;12.00;;;5.88;;
26742;SDS011;14341;51.256;22.478;2022-10-19T08:37:25;13.10;;;6.45;;
26742;SDS011;14341;51.256;22.478;2022-10-19T08:40:44;14.73;;;5.57;;
26742;SDS011;14341;51.256;22.478;2022-10-19T08:43:58;15.90;;;6.35;;
26742;SDS011;14341;51.256;22.478;2022-10-19T08:47:24;12.57;;;5.82;;
26742;SDS011;14341;51.256;22.478;2022-10-19T08:50:37;14.68;;;5.45;;
26742;SDS011;14341;51.256;22.478;2022-10-19T08:53:44;15.63;;;5.25;;
26742;SDS011;14341;51.256;22.478;2022-10-19T08:56:56;14.98;;;6.10;;
26742;SDS011;14341;51.256;22.478;2022-10-19T09:00:11;14.85;;;6.05;;
26742;SDS011;14341;51.256;22.478;2022-10-19T09:03:22;12.93;;;6.07;;
26742;SDS011;14341;51.256;22.478;2022-10-19T09:06:49;11.95;;;5.55;;
26742;SDS011;14341;51.256;22.478;2022-10-19T09:10:02;16.45;;;6.45;;
26742;SDS011;14341;51.256;22.478;2022-10-19T09:13:17;13.82;;;7.07;;
26742;SDS011;14341;51.256;22.478;2022-10-19T09:16:48;12.68;;;7.70;;
26742;SDS011;14341;51.256;22.478;2022-10-19T09:19:52;20.08;;;8.98;;
26742;SDS011;14341;51.256;22.478;2022-10-19T09:23:01;21.80;;;9.18;;
26742;SDS011;14341;51.256;22.478;2022-10-19T09:26:13;18.35;;;8.38;;
26742;SDS011;14341;51.256;22.478;2022-10-19T09:29:20;15.75;;;7.82;;
26742;SDS011;14341;51.256;22.478;2022-10-19T09:32:31;11.63;;;7.32;;
26742;SDS011;14341;51.256;22.478;2022-10-19T09:35:37;16.13;;;8.25;;
26742;SDS011;14341;51.256;22.478;2022-10-19T09:38:44;10.80;;;6.97;;
26742;SDS011;14341;51.256;22.478;2022-10-19T09:41:50;16.27;;;8.55;;
26742;SDS011;14341;51.256;22.478;2022-10-19T09:44:56;14.95;;;8.32;;
26742;SDS011;14341;51.256;22.478;2022-10-19T09:48:05;15.43;;;8.13;;
26742;SDS011;14341;51.256;22.478;2022-10-19T09:51:18;17.75;;;8.07;;
26742;SDS011;14341;51.256;22.478;2022-10-19T09:54:26;14.23;;;7.45;;
26742;SDS011;14341;51.256;22.478;2022-10-19T09:57:40;15.35;;;7.53;;
26742;SDS011;14341;51.256;22.478;2022-10-19T10:00:45;15.23;;;7.45;;
26742;SDS011;14341;51.256;22.478;2022-10-19T10:03:52;11.35;;;7.38;;
26742;SDS011;14341;51.256;22.478;2022-10-19T10:07:09;13.52;;;7.55;;
26742;SDS011;14341;51.256;22.478;2022-10-19T10:10:18;13.38;;;7.07;;
26742;SDS011;14341;51.256;22.478;2022-10-19T10:13:33;14.48;;;7.40;;
26742;SDS011;14341;51.256;22.478;2022-10-19T10:16:39;16.33;;;7.68;;
26742;SDS011;14341;51.256;22.478;2022-10-19T10:19:51;14.77;;;7.18;;
26742;SDS011;14341;51.256;22.478;2022-10-19T10:23:12;9.13;;;6.57;;
26742;SDS011;14341;51.256;22.478;2022-10-19T10:26:25;16.33;;;8.93;;
26742;SDS011;14341;51.256;22.478;2022-10-19T10:29:29;11.82;;;6.28;;
26742;SDS011;14341;51.256;22.478;2022-10-19T10:32:35;15.23;;;7.78;;
26742;SDS011;14341;51.256;22.478;2022-10-19T10:35:47;11.30;;;6.05;;
26742;SDS011;14341;51.256;22.478;2022-10-19T10:38:55;12.88;;;5.80;;
26742;SDS011;14341;51.256;22.478;2022-10-19T10:42:05;9.32;;;5.50;;
26742;SDS011;14341;51.256;22.478;2022-10-19T10:45:15;12.43;;;5.32;;
26742;SDS011;14341;51.256;22.478;2022-10-19T10:48:25;7.97;;;5.13;;
26742;SDS011;14341;51.256;22.478;2022-10-19T10:51:33;10.02;;;4.97;;
26742;SDS011;14341;51.256;22.478;2022-10-19T10:54:42;11.98;;;5.10;;
26742;SDS011;14341;51.256;22.478;2022-10-19T10:58:09;12.13;;;4.23;;
26742;SDS011;14341;51.256;22.478;2022-10-19T11:01:17;10.13;;;4.28;;
26742;SDS011;14341;51.256;22.478;2022-10-19T11:04:24;11.20;;;5.28;;
26742;SDS011;14341;51.256;22.478;2022-10-19T11:07:35;9.02;;;5.22;;
26742;SDS011;14341;51.256;22.478;2022-10-19T11:10:44;9.53;;;3.73;;
26742;SDS011;14341;51.256;22.478;2022-10-19T11:13:52;8.88;;;5.63;;
26742;SDS011;14341;51.256;22.478;2022-10-19T11:17:02;10.70;;;5.43;;
26742;SDS011;14341;51.256;22.478;2022-10-19T11:20:09;6.75;;;4.90;;
26742;SDS011;14341;51.256;22.478;2022-10-19T11:23:19;10.85;;;5.28;;
26742;SDS011;14341;51.256;22.478;2022-10-19T11:26:41;9.20;;;4.00;;
26742;SDS011;14341;51.256;22.478;2022-10-19T11:30:09;6.85;;;4.20;;
26742;SDS011;14341;51.256;22.478;2022-10-19T11:33:18;10.30;;;3.95;;
26742;SDS011;14341;51.256;22.478;2022-10-19T11:36:34;8.35;;;3.90;;
26742;SDS011;14341;51.256;22.478;2022-10-19T11:39:48;9.80;;;4.00;;
26742;SDS011;14341;51.256;22.478;2022-10-19T11:43:01;5.88;;;3.40;;
26742;SDS011;14341;51.256;22.478;2022-10-19T11:46:09;4.22;;;3.40;;
26742;SDS011;14341;51.256;22.478;2022-10-19T11:49:22;6.32;;;3.85;;
26742;SDS011;14341;51.256;22.478;2022-10-19T11:52:38;8.40;;;4.05;;
26742;SDS011;14341;51.256;22.478;2022-10-19T11:55:52;5.63;;;3.88;;
26742;SDS011;14341;51.256;22.478;2022-10-19T11:59:02;7.15;;;3.88;;
26742;SDS011;14341;51.256;22.478;2022-10-19T12:02:24;6.50;;;4.43;;
26742;SDS011;14341;51.256;22.478;2022-10-19T12:06:01;7.45;;;4.88;;
26742;SDS011;14341;51.256;22.478;2022-10-19T12:09:16;8.60;;;4.90;;
26742;SDS011;14341;51.256;22.478;2022-10-19T12:12:29;6.85;;;4.95;;
26742;SDS011;14341;51.256;22.478;2022-10-19T12:15:37;8.57;;;5.03;;
26742;SDS011;14341;51.256;22.478;2022-10-19T12:18:45;8.30;;;5.20;;
26742;SDS011;14341;51.256;22.478;2022-10-19T12:21:50;14.32;;;6.55;;
26742;SDS011;14341;51.256;22.478;2022-10-19T12:24:57;14.65;;;8.35;;
26742;SDS011;14341;51.256;22.478;2022-10-19T12:28:04;35.53;;;17.38;;
26742;SDS011;14341;51.256;22.478;2022-10-19T12:35:46;8.05;;;2.97;;
26742;SDS011;14341;51.256;22.478;2022-10-19T12:38:58;8.20;;;3.95;;
26742;SDS011;14341;51.256;22.478;2022-10-19T12:42:11;4.22;;;3.47;;
26742;SDS011;14341;51.256;22.478;2022-10-19T12:45:24;5.88;;;3.50;;
26742;SDS011;14341;51.256;22.478;2022-10-19T12:48:31;5.20;;;2.75;;
26742;SDS011;14341;51.256;22.478;2022-10-19T12:51:43;8.23;;;3.20;;
26742;SDS011;14341;51.256;22.478;2022-10-19T12:54:47;5.60;;;3.17;;
26742;SDS011;14341;51.256;22.478;2022-10-19T12:57:57;5.45;;;2.75;;
26742;SDS011;14341;51.256;22.478;2022-10-19T13:01:05;5.65;;;2.45;;
26742;SDS011;14341;51.256;22.478;2022-10-19T13:04:11;11.48;;;4.28;;
26742;SDS011;14341;51.256;22.478;2022-10-19T13:07:15;9.98;;;4.50;;
26742;SDS011;14341;51.256;22.478;2022-10-19T13:10:20;4.53;;;3.10;;
26742;SDS011;14341;51.256;22.478;2022-10-19T13:17:03;5.63;;;3.63;;
26742;SDS011;14341;51.256;22.478;2022-10-19T13:27:03;5.32;;;3.30;;
26742;SDS011;14341;51.256;22.478;2022-10-19T13:34:12;6.00;;;3.20;;
26742;SDS011;14341;51.256;22.478;2022-10-19T13:37:16;4.75;;;3.10;;
26742;SDS011;14341;51.256;22.478;2022-10-19T13:40:21;3.45;;;3.03;;
26742;SDS011;14341;51.256;22.478;2022-10-19T13:43:25;4.50;;;3.20;;
26742;SDS011;14341;51.256;22.478;2022-10-19T13:53:35;4.75;;;3.67;;
26742;SDS011;14341;51.256;22.478;2022-10-19T13:56:57;8.25;;;3.50;;
26742;SDS011;14341;51.256;22.478;2022-10-19T14:00:16;4.35;;;3.10;;
26742;SDS011;14341;51.256;22.478;2022-10-19T14:03:24;5.43;;;3.53;;
26742;SDS011;14341;51.256;22.478;2022-10-19T14:06:39;5.32;;;3.53;;
26742;SDS011;14341;51.256;22.478;2022-10-19T14:09:59;4.45;;;3.25;;
26742;SDS011;14341;51.256;22.478;2022-10-19T14:13:14;6.55;;;3.60;;
26742;SDS011;14341;51.256;22.478;2022-10-19T14:16:19;5.57;;;3.10;;
26742;SDS011;14341;51.256;22.478;2022-10-19T14:19:25;7.90;;;3.78;;
26742;SDS011;14341;51.256;22.478;2022-10-19T14:22:38;8.90;;;3.90;;
26742;SDS011;14341;51.256;22.478;2022-10-19T14:25:47;5.78;;;3.67;;
26742;SDS011;14341;51.256;22.478;2022-10-19T14:28:52;5.55;;;2.72;;
26742;SDS011;14341;51.256;22.478;2022-10-19T14:32:02;7.53;;;3.70;;
26742;SDS011;14341;51.256;22.478;2022-10-19T14:35:22;6.30;;;3.55;;
26742;SDS011;14341;51.256;22.478;2022-10-19T14:38:31;5.50;;;3.50;;
26742;SDS011;14341;51.256;22.478;2022-10-19T14:41:36;5.72;;;3.78;;
26742;SDS011;14341;51.256;22.478;2022-10-19T14:44:42;7.10;;;3.53;;
26742;SDS011;14341;51.256;22.478;2022-10-19T14:47:53;5.07;;;3.33;;
26742;SDS011;14341;51.256;22.478;2022-10-19T14:51:00;6.40;;;3.55;;
26742;SDS011;14341;51.256;22.478;2022-10-19T14:54:13;6.75;;;3.40;;
26742;SDS011;14341;51.256;22.478;2022-10-19T14:57:25;5.97;;;3.42;;
26742;SDS011;14341;51.256;22.478;2022-10-19T15:00:33;5.93;;;3.67;;
26742;SDS011;14341;51.256;22.478;2022-10-19T15:03:39;6.00;;;3.58;;
26742;SDS011;14341;51.256;22.478;2022-10-19T15:06:44;27.67;;;15.57;;
26742;SDS011;14341;51.256;22.478;2022-10-19T15:09:50;10.90;;;6.43;;
26742;SDS011;14341;51.256;22.478;2022-10-19T15:12:56;12.70;;;8.77;;
26742;SDS011;14341;51.256;22.478;2022-10-19T15:16:03;77.50;;;54.10;;
26742;SDS011;14341;51.256;22.478;2022-10-19T15:19:13;19.98;;;13.70;;
26742;SDS011;14341;51.256;22.478;2022-10-19T15:22:20;3.15;;;2.17;;
26742;SDS011;14341;51.256;22.478;2022-10-19T15:25:28;4.05;;;2.65;;
26742;SDS011;14341;51.256;22.478;2022-10-19T15:28:36;15.65;;;7.70;;
26742;SDS011;14341;51.256;22.478;2022-10-19T15:31:42;12.05;;;7.78;;
26742;SDS011;14341;51.256;22.478;2022-10-19T15:34:45;15.55;;;8.60;;
26742;SDS011;14341;51.256;22.478;2022-10-19T15:37:48;30.20;;;16.17;;
26742;SDS011;14341;51.256;22.478;2022-10-19T15:40:56;78.70;;;46.72;;
26742;SDS011;14341;51.256;22.478;2022-10-19T15:44:01;12.50;;;8.18;;
26742;SDS011;14341;51.256;22.478;2022-10-19T15:47:17;8.18;;;4.50;;
26742;SDS011;14341;51.256;22.478;2022-10-19T15:50:29;33.22;;;22.10;;
26742;SDS011;14341;51.256;22.478;2022-10-19T15:53:39;30.30;;;19.48;;
26742;SDS011;14341;51.256;22.478;2022-10-19T15:56:45;11.32;;;6.43;;
26742;SDS011;14341;51.256;22.478;2022-10-19T15:59:52;16.50;;;9.23;;
26742;SDS011;14341;51.256;22.478;2022-10-19T16:02:57;46.45;;;27.38;;
26742;SDS011;14341;51.256;22.478;2022-10-19T16:06:01;39.08;;;23.75;;
26742;SDS011;14341;51.256;22.478;2022-10-19T16:09:05;29.55;;;18.25;;
26742;SDS011;14341;51.256;22.478;2022-10-19T16:12:24;6.35;;;4.13;;
26742;SDS011;14341;51.256;22.478;2022-10-19T16:15:32;7.93;;;4.45;;
26742;SDS011;14341;51.256;22.478;2022-10-19T16:18:39;25.67;;;14.75;;
26742;SDS011;14341;51.256;22.478;2022-10-19T16:22:19;12.35;;;6.25;;
26742;SDS011;14341;51.256;22.478;2022-10-19T16:25:37;35.95;;;19.95;;
26742;SDS011;14341;51.256;22.478;2022-10-19T16:29:00;12.52;;;7.88;;
26742;SDS011;14341;51.256;22.478;2022-10-19T16:32:33;7.63;;;4.82;;
26742;SDS011;14341;51.256;22.478;2022-10-19T16:35:53;4.80;;;3.05;;
26742;SDS011;14341;51.256;22.478;2022-10-19T16:39:07;7.28;;;3.88;;
26742;SDS011;14341;51.256;22.478;2022-10-19T16:42:23;13.40;;;7.75;;
26742;SDS011;14341;51.256;22.478;2022-10-19T16:45:46;21.27;;;11.18;;
26742;SDS011;14341;51.256;22.478;2022-10-19T16:48:51;76.40;;;37.70;;
26742;SDS011;14341;51.256;22.478;2022-10-19T16:51:58;113.18;;;58.45;;
26742;SDS011;14341;51.256;22.478;2022-10-19T16:55:06;71.28;;;35.88;;
26742;SDS011;14341;51.256;22.478;2022-10-19T16:58:18;24.73;;;12.70;;
26742;SDS011;14341;51.256;22.478;2022-10-19T17:01:24;25.17;;;11.70;;
26742;SDS011;14341;51.256;22.478;2022-10-19T17:04:28;33.35;;;14.20;;
26742;SDS011;14341;51.256;22.478;2022-10-19T17:07:34;40.25;;;15.00;;
26742;SDS011;14341;51.256;22.478;2022-10-19T17:10:46;19.45;;;8.90;;
26742;SDS011;14341;51.256;22.478;2022-10-19T17:13:50;13.20;;;6.22;;
26742;SDS011;14341;51.256;22.478;2022-10-19T17:16:56;20.15;;;6.97;;
26742;SDS011;14341;51.256;22.478;2022-10-19T17:20:00;19.42;;;7.22;;
26742;SDS011;14341;51.256;22.478;2022-10-19T17:23:04;14.07;;;7.05;;
26742;SDS011;14341;51.256;22.478;2022-10-19T17:26:08;12.32;;;5.90;;
26742;SDS011;14341;51.256;22.478;2022-10-19T17:29:12;8.77;;;5.18;;
26742;SDS011;14341;51.256;22.478;2022-10-19T17:32:17;9.50;;;4.45;;
26742;SDS011;14341;51.256;22.478;2022-10-19T17:35:21;12.30;;;7.03;;
26742;SDS011;14341;51.256;22.478;2022-10-19T17:38:24;11.63;;;5.90;;
26742;SDS011;14341;51.256;22.478;2022-10-19T17:41:27;8.32;;;4.45;;
26742;SDS011;14341;51.256;22.478;2022-10-19T17:44:31;9.32;;;4.68;;
26742;SDS011;14341;51.256;22.478;2022-10-19T17:47:37;7.82;;;4.60;;
26742;SDS011;14341;51.256;22.478;2022-10-19T17:50:40;9.38;;;4.93;;
26742;SDS011;14341;51.256;22.478;2022-10-19T17:53:44;10.20;;;4.50;;
26742;SDS011;14341;51.256;22.478;2022-10-19T17:56:49;9.75;;;4.60;;
26742;SDS011;14341;51.256;22.478;2022-10-19T17:59:52;8.70;;;3.95;;
26742;SDS011;14341;51.256;22.478;2022-10-19T18:02:57;8.98;;;4.22;;
26742;SDS011;14341;51.256;22.478;2022-10-19T18:06:01;9.63;;;4.90;;
26742;SDS011;14341;51.256;22.478;2022-10-19T18:12:17;15.57;;;8.55;;
26742;SDS011;14341;51.256;22.478;2022-10-19T18:15:20;13.60;;;6.70;;
26742;SDS011;14341;51.256;22.478;2022-10-19T18:18:28;13.38;;;6.22;;
26742;SDS011;14341;51.256;22.478;2022-10-19T18:21:33;14.98;;;6.47;;
26742;SDS011;14341;51.256;22.478;2022-10-19T18:24:38;11.43;;;5.70;;
26742;SDS011;14341;51.256;22.478;2022-10-19T18:27:42;11.65;;;5.10;;
26742;SDS011;14341;51.256;22.478;2022-10-19T18:30:45;8.60;;;4.57;;
26742;SDS011;14341;51.256;22.478;2022-10-19T18:33:55;6.10;;;3.67;;
26742;SDS011;14341;51.256;22.478;2022-10-19T18:37:02;7.72;;;3.95;;
26742;SDS011;14341;51.256;22.478;2022-10-19T18:40:06;8.88;;;4.78;;
26742;SDS011;14341;51.256;22.478;2022-10-19T18:43:12;23.42;;;12.02;;
26742;SDS011;14341;51.256;22.478;2022-10-19T18:46:16;28.48;;;14.68;;
26742;SDS011;14341;51.256;22.478;2022-10-19T18:49:22;49.15;;;25.83;;
26742;SDS011;14341;51.256;22.478;2022-10-19T18:52:26;34.35;;;17.55;;
26742;SDS011;14341;51.256;22.478;2022-10-19T18:55:30;20.05;;;10.00;;
26742;SDS011;14341;51.256;22.478;2022-10-19T18:58:33;20.27;;;10.75;;